Aérodrome :
LOGIN :

S'inscrire | Disclaimer

   EN    FR    IT 

 










Légende :    VFR   VFR Marginal   IFR   IFR Intensif   IFR Très Intensif
Visi : 
Plafond : 
>= 8 km
>= 3000ft
5 à 8 km
1000 à 3000 ft
1500m à 5 km
500 à 1000 ft
800 à 1500m
200 à 500 ft
< 800m
< 200 ft
Symboles :   Orages  Brouillard  Fortes neiges  Fortes précipitations  Vent > 20 kt
SIGMETs :   Divers  Orages  Givrage  Turbulence  Onde Orograph.  Cendres Volcan.






- Altitude de l'aérodrome : 75 ft
- Code IATA : YEO


EGDY - RNAS Yeovilton

DERNIER METAR :
  • 022150Z 20001KT 9999 FEW045 SCT100 BKN200 16/10 Q1014 NOSIG RMK BLU BLU

METARs EXPIRÉS :
  • 022120Z 20002KT 9999 FEW045 SCT200 17/10 Q1014 NOSIG RMK BLU BLU
  • 022050Z 15003KT CAVOK 17/09 Q1014 NOSIG RMK BLU BLU
  • 022020Z 31003KT CAVOK 19/09 Q1015 NOSIG RMK BLU BLU
  • 021950Z 31007KT CAVOK 20/09 Q1015 NOSIG RMK BLU BLU
  • 021920Z 32009KT CAVOK 21/09 Q1015 NOSIG RMK BLU BLU

TAF TAF EGDY
Valide du 02 à 18h jusqu'au 03 à 03h UTC


021628Z 0218/0303 30010KT CAVOK
BECMG 0222/0224 VRB03KT
TEMPO 0301/0303 30010KT 6000 RA SCT007
PROB40 0302/0303 1500 BR BKN006



MET'MAP, la Météo Aéronautique d'un coup d'oeil ! - Copyright ORBIFLY Décembre 2007 - Disclaimer

ORBIFLY MET'MAP TEAM :

Programmation & Développement : Alexandra Zaïnal
Sur une idée originale de : Baudouin d'Aumeries
Assistance à la programmation : Marc-Olivier Méhu
Soutien technique & logistique : Manuel Goepfert

Contact : metmap@orbifly.com




SOURCES & CREDITS :

   NOAA